createdAt,value
2018-11-03T00:00:14.827Z,1023.41
2018-11-03T00:02:06.646Z,1023.39
2018-11-03T00:03:06.531Z,1023.37
2018-11-03T00:04:58.309Z,1023.30
2018-11-03T00:05:58.228Z,1023.29
2018-11-03T00:07:50.031Z,1023.29
2018-11-03T00:08:49.980Z,1023.27
2018-11-03T00:10:41.723Z,1023.31
2018-11-03T00:11:41.640Z,1023.30
2018-11-03T00:13:33.408Z,1023.29
2018-11-03T00:14:33.318Z,1023.27
2018-11-03T00:16:25.121Z,1023.26
2018-11-03T00:17:25.055Z,1023.23
2018-11-03T00:19:16.831Z,1023.24
2018-11-03T00:20:16.753Z,1023.26
2018-11-03T00:22:08.528Z,1023.26
2018-11-03T00:23:08.436Z,1023.31
2018-11-03T00:25:00.193Z,1023.32
2018-11-03T00:26:00.119Z,1023.32
2018-11-03T00:27:51.861Z,1023.31
2018-11-03T00:28:51.795Z,1023.27
2018-11-03T00:30:43.582Z,1023.25
2018-11-03T00:31:43.494Z,1023.28
2018-11-03T00:33:35.282Z,1023.32
2018-11-03T00:34:35.176Z,1023.34
2018-11-03T00:36:26.944Z,1023.36
2018-11-03T00:37:26.861Z,1023.38
2018-11-03T00:39:18.647Z,1023.40
2018-11-03T00:40:18.608Z,1023.37
2018-11-03T00:42:10.320Z,1023.36
2018-11-03T00:43:10.242Z,1023.32
2018-11-03T00:45:02.013Z,1023.29
2018-11-03T00:46:01.927Z,1023.31
2018-11-03T00:47:53.691Z,1023.34
2018-11-03T00:48:53.613Z,1023.33
2018-11-03T00:50:45.414Z,1023.29
2018-11-03T00:51:45.290Z,1023.27
2018-11-03T00:53:37.096Z,1023.28
2018-11-03T00:54:37.028Z,1023.30
2018-11-03T00:56:28.786Z,1023.33
2018-11-03T00:57:28.699Z,1023.28
2018-11-03T00:59:20.497Z,1023.28
2018-11-03T01:00:20.415Z,1023.33
2018-11-03T01:02:12.172Z,1023.30
2018-11-03T01:03:12.101Z,1023.24
2018-11-03T01:05:03.874Z,1023.26
2018-11-03T01:06:03.778Z,1023.25
2018-11-03T01:07:55.536Z,1023.28
2018-11-03T01:08:55.465Z,1023.24
2018-11-03T01:10:47.266Z,1023.24
2018-11-03T01:11:47.179Z,1023.25
2018-11-03T01:13:38.962Z,1023.22
2018-11-03T01:14:38.870Z,1023.27
2018-11-03T01:16:30.632Z,1023.26
2018-11-03T01:17:30.547Z,1023.20
2018-11-03T01:19:22.323Z,1023.23
2018-11-03T01:20:22.249Z,1023.25
2018-11-03T01:22:13.986Z,1023.24
2018-11-03T01:23:13.919Z,1023.28
2018-11-03T01:25:05.694Z,1023.33
2018-11-03T01:26:05.607Z,1023.35
2018-11-03T01:27:57.417Z,1023.37
2018-11-03T01:28:57.298Z,1023.35
2018-11-03T01:30:49.101Z,1023.34
2018-11-03T01:31:48.987Z,1023.35
2018-11-03T01:33:40.745Z,1023.36
2018-11-03T01:34:40.674Z,1023.36
2018-11-03T01:36:32.438Z,1023.36
2018-11-03T01:37:32.357Z,1023.35
2018-11-03T01:39:24.115Z,1023.36
2018-11-03T01:40:24.046Z,1023.36
2018-11-03T01:42:15.815Z,1023.41
2018-11-03T01:43:15.731Z,1023.42
2018-11-03T01:45:07.505Z,1023.49
2018-11-03T01:46:07.425Z,1023.56
2018-11-03T01:47:59.266Z,1023.55
2018-11-03T01:48:59.175Z,1023.54
2018-11-03T01:50:50.948Z,1023.57
2018-11-03T01:51:50.844Z,1023.57
2018-11-03T01:53:42.661Z,1023.52
2018-11-03T01:54:42.555Z,1023.51
2018-11-03T01:56:34.302Z,1023.49
2018-11-03T01:57:34.220Z,1023.47
2018-11-03T01:59:26.025Z,1023.46
2018-11-03T02:00:25.921Z,1023.48
2018-11-03T02:02:17.701Z,1023.47
2018-11-03T02:03:17.607Z,1023.44
2018-11-03T02:05:09.426Z,1023.43
2018-11-03T02:06:09.334Z,1023.45
2018-11-03T02:08:01.085Z,1023.45
2018-11-03T02:09:01.052Z,1023.52
2018-11-03T02:10:52.776Z,1023.55
2018-11-03T02:11:52.697Z,1023.60
2018-11-03T02:13:44.450Z,1023.56
2018-11-03T02:14:44.370Z,1023.53
2018-11-03T02:16:36.155Z,1023.46
2018-11-03T02:17:36.047Z,1023.50
2018-11-03T02:19:27.837Z,1023.50
2018-11-03T02:20:27.758Z,1023.52
2018-11-03T02:22:19.539Z,1023.57
2018-11-03T02:23:19.462Z,1023.53
2018-11-03T02:25:11.255Z,1023.62
2018-11-03T02:26:11.187Z,1023.62
2018-11-03T02:28:02.923Z,1023.69
2018-11-03T02:29:02.854Z,1023.67
2018-11-03T02:30:54.644Z,1023.71
2018-11-03T02:31:54.558Z,1023.75
2018-11-03T02:33:46.366Z,1023.75
2018-11-03T02:34:46.294Z,1023.77
2018-11-03T02:36:38.068Z,1023.77
2018-11-03T02:37:37.979Z,1023.81
2018-11-03T02:39:29.802Z,1023.78
2018-11-03T02:40:29.654Z,1023.82
2018-11-03T02:42:21.458Z,1023.83
2018-11-03T02:43:21.367Z,1023.82
2018-11-03T02:45:13.156Z,1023.92
2018-11-03T02:46:13.099Z,1023.95
2018-11-03T02:48:04.847Z,1023.94
2018-11-03T02:49:04.764Z,1023.91
2018-11-03T02:50:56.545Z,1023.90
2018-11-03T02:51:56.463Z,1023.91
2018-11-03T02:53:48.222Z,1023.85
2018-11-03T02:54:48.150Z,1023.87
2018-11-03T02:56:39.951Z,1023.88
2018-11-03T02:57:39.865Z,1023.90
2018-11-03T02:59:31.645Z,1023.93
2018-11-03T03:00:31.555Z,1023.97
2018-11-03T03:02:23.331Z,1024.02
2018-11-03T03:03:23.266Z,1024.06
2018-11-03T03:05:15.048Z,1024.15
2018-11-03T03:06:14.959Z,1024.22
2018-11-03T03:08:06.724Z,1024.26
2018-11-03T03:09:06.640Z,1024.25
2018-11-03T03:10:58.411Z,1024.23
2018-11-03T03:11:58.314Z,1024.20
2018-11-03T03:13:50.080Z,1024.28
2018-11-03T03:14:50.007Z,1024.30
2018-11-03T03:16:41.781Z,1024.36
2018-11-03T03:17:41.701Z,1024.36
2018-11-03T03:19:33.479Z,1024.40
2018-11-03T03:20:33.414Z,1024.39
2018-11-03T03:22:25.172Z,1024.30
2018-11-03T03:23:25.091Z,1024.29
2018-11-03T03:25:16.856Z,1024.27
2018-11-03T03:26:16.834Z,1024.27
2018-11-03T03:28:08.567Z,1024.29
2018-11-03T03:29:08.602Z,1024.28
2018-11-03T03:31:00.248Z,1024.24
2018-11-03T03:32:00.162Z,1024.25
2018-11-03T03:33:51.911Z,1024.27
2018-11-03T03:34:51.839Z,1024.29
2018-11-03T03:36:43.617Z,1024.30
2018-11-03T03:37:43.534Z,1024.35
2018-11-03T03:39:35.298Z,1024.33
2018-11-03T03:40:35.225Z,1024.39
2018-11-03T03:42:27.049Z,1024.34
2018-11-03T03:43:26.947Z,1024.35
2018-11-03T03:45:18.710Z,1024.32
2018-11-03T03:46:18.655Z,1024.35
2018-11-03T03:48:10.396Z,1024.31
2018-11-03T03:49:10.309Z,1024.30
2018-11-03T03:51:02.094Z,1024.30
2018-11-03T03:52:02.052Z,1024.30
2018-11-03T03:53:53.803Z,1024.32
2018-11-03T03:54:53.717Z,1024.35
2018-11-03T03:56:45.560Z,1024.32
2018-11-03T03:57:45.461Z,1024.33
2018-11-03T03:59:37.249Z,1024.33
2018-11-03T04:00:37.181Z,1024.32
2018-11-03T04:02:28.970Z,1024.29
2018-11-03T04:03:28.878Z,1024.27
2018-11-03T04:05:20.626Z,1024.26
2018-11-03T04:06:20.552Z,1024.27
2018-11-03T04:08:12.332Z,1024.28
2018-11-03T04:09:12.246Z,1024.25
2018-11-03T04:11:04.009Z,1024.24
2018-11-03T04:12:03.976Z,1024.23
2018-11-03T04:13:55.710Z,1024.20
2018-11-03T04:14:55.623Z,1024.19
2018-11-03T04:16:47.408Z,1024.21
2018-11-03T04:17:47.306Z,1024.18
2018-11-03T04:19:39.128Z,1024.23
2018-11-03T04:20:39.031Z,1024.24
2018-11-03T04:22:30.816Z,1024.19
2018-11-03T04:23:30.733Z,1024.19
2018-11-03T04:25:22.487Z,1024.20
2018-11-03T04:26:22.419Z,1024.22
2018-11-03T04:28:14.214Z,1024.23
2018-11-03T04:29:14.137Z,1024.23
2018-11-03T04:31:05.896Z,1024.25
2018-11-03T04:32:05.837Z,1024.27
2018-11-03T04:33:57.623Z,1024.34
2018-11-03T04:34:57.572Z,1024.34
2018-11-03T04:36:49.311Z,1024.36
2018-11-03T04:37:49.241Z,1024.33
2018-11-03T04:39:40.988Z,1024.35
2018-11-03T04:40:40.921Z,1024.32
2018-11-03T04:42:32.716Z,1024.37
2018-11-03T04:43:32.601Z,1024.37
2018-11-03T04:45:24.665Z,1024.39
2018-11-03T04:46:24.303Z,1024.40
2018-11-03T04:48:16.084Z,1024.39
2018-11-03T04:49:16.031Z,1024.43
2018-11-03T04:51:07.843Z,1024.42
2018-11-03T04:52:07.752Z,1024.45
2018-11-03T04:53:59.519Z,1024.40
2018-11-03T04:54:59.476Z,1024.41
2018-11-03T04:56:51.240Z,1024.44
2018-11-03T04:57:51.182Z,1024.48
2018-11-03T04:59:42.970Z,1024.44
2018-11-03T05:00:42.876Z,1024.46
2018-11-03T05:02:34.676Z,1024.53
2018-11-03T05:03:34.593Z,1024.52
2018-11-03T05:05:26.369Z,1024.57
2018-11-03T05:06:26.269Z,1024.58
2018-11-03T05:08:18.070Z,1024.62
2018-11-03T05:09:17.974Z,1024.61
2018-11-03T05:11:09.746Z,1024.63
2018-11-03T05:12:09.670Z,1024.69
2018-11-03T05:14:01.431Z,1024.62
2018-11-03T05:15:01.359Z,1024.62
2018-11-03T05:16:53.123Z,1024.59
2018-11-03T05:17:53.053Z,1024.58
2018-11-03T05:19:44.824Z,1024.59
2018-11-03T05:20:44.738Z,1024.61
2018-11-03T05:22:36.546Z,1024.57
2018-11-03T05:23:36.428Z,1024.54
2018-11-03T05:25:28.223Z,1024.55
2018-11-03T05:26:28.145Z,1024.56
2018-11-03T05:28:19.923Z,1024.55
2018-11-03T05:29:19.843Z,1024.54
2018-11-03T05:31:11.616Z,1024.55
2018-11-03T05:32:11.518Z,1024.55
2018-11-03T05:34:03.313Z,1024.58
2018-11-03T05:35:03.226Z,1024.58
2018-11-03T05:36:54.961Z,1024.59
2018-11-03T05:37:54.890Z,1024.60
2018-11-03T05:39:46.745Z,1024.66
2018-11-03T05:40:46.662Z,1024.60
2018-11-03T05:42:38.429Z,1024.61
2018-11-03T05:43:38.355Z,1024.62
2018-11-03T05:45:30.118Z,1024.65
2018-11-03T05:46:30.142Z,1024.66
2018-11-03T05:48:21.813Z,1024.68
2018-11-03T05:49:21.770Z,1024.66
2018-11-03T05:51:13.502Z,1024.65
2018-11-03T05:52:13.428Z,1024.68
2018-11-03T05:54:05.226Z,1024.68
2018-11-03T05:55:05.123Z,1024.72
2018-11-03T05:56:56.898Z,1024.74
2018-11-03T05:57:56.810Z,1024.73
2018-11-03T05:59:48.619Z,1024.79
2018-11-03T06:00:48.567Z,1024.78
2018-11-03T06:02:40.352Z,1024.75
2018-11-03T06:03:40.224Z,1024.77
2018-11-03T06:05:32.029Z,1024.78
2018-11-03T06:06:32.062Z,1024.76
2018-11-03T06:08:23.896Z,1024.78
2018-11-03T06:09:23.740Z,1024.74
2018-11-03T06:11:15.441Z,1024.77
2018-11-03T06:12:15.381Z,1024.75
2018-11-03T06:14:07.149Z,1024.74
2018-11-03T06:15:07.105Z,1024.69
2018-11-03T06:16:58.870Z,1024.73
2018-11-03T06:17:58.794Z,1024.77
2018-11-03T06:19:50.709Z,1024.83
2018-11-03T06:20:50.601Z,1024.77
2018-11-03T06:22:42.569Z,1024.81
2018-11-03T06:23:42.409Z,1024.82
2018-11-03T06:25:34.082Z,1024.85
2018-11-03T06:26:34.002Z,1024.91
2018-11-03T06:28:25.888Z,1024.94
2018-11-03T06:29:25.791Z,1024.95
2018-11-03T06:31:17.560Z,1024.96
2018-11-03T06:32:17.770Z,1024.93
2018-11-03T06:34:09.403Z,1025.03
2018-11-03T06:35:09.340Z,1025.07
2018-11-03T06:37:01.039Z,1025.06
2018-11-03T06:38:00.979Z,1025.07
2018-11-03T06:39:52.929Z,1025.13
2018-11-03T06:40:52.683Z,1025.11
2018-11-03T06:42:44.454Z,1025.15
2018-11-03T06:43:44.360Z,1025.20
2018-11-03T06:45:36.173Z,1025.24
2018-11-03T06:46:36.154Z,1025.25
2018-11-03T06:48:27.904Z,1025.21
2018-11-03T06:49:27.941Z,1025.27
2018-11-03T06:51:19.582Z,1025.27
2018-11-03T06:52:19.541Z,1025.27
2018-11-03T06:54:11.417Z,1025.36
2018-11-03T06:55:11.262Z,1025.34
2018-11-03T06:57:03.050Z,1025.39
2018-11-03T06:58:03.064Z,1025.36
2018-11-03T06:59:54.764Z,1025.39
2018-11-03T07:00:54.699Z,1025.42
2018-11-03T07:02:46.392Z,1025.45
2018-11-03T07:03:46.333Z,1025.47
2018-11-03T07:05:38.246Z,1025.51
2018-11-03T07:06:38.129Z,1025.52
2018-11-03T07:08:30.274Z,1025.56
2018-11-03T07:09:30.100Z,1025.59
2018-11-03T07:11:21.872Z,1025.60
2018-11-03T07:12:21.879Z,1025.63
2018-11-03T07:14:13.653Z,1025.60
2018-11-03T07:15:13.497Z,1025.60
2018-11-03T07:17:05.259Z,1025.61
2018-11-03T07:18:05.188Z,1025.63
2018-11-03T07:19:56.988Z,1025.59
2018-11-03T07:20:56.906Z,1025.63
2018-11-03T07:22:48.811Z,1025.55
2018-11-03T07:23:48.626Z,1025.58
2018-11-03T07:25:40.463Z,1025.53
2018-11-03T07:26:40.417Z,1025.57
2018-11-03T07:28:32.180Z,1025.56
2018-11-03T07:29:32.125Z,1025.59
2018-11-03T07:31:24.603Z,1025.63
2018-11-03T07:32:24.608Z,1025.58
2018-11-03T07:34:16.439Z,1025.58
2018-11-03T07:35:16.260Z,1025.58
2018-11-03T07:37:08.134Z,1025.59
2018-11-03T07:38:07.932Z,1025.53
2018-11-03T07:39:59.732Z,1025.59
2018-11-03T07:40:59.707Z,1025.64
2018-11-03T07:42:51.566Z,1025.66
2018-11-03T07:43:51.316Z,1025.62
2018-11-03T07:45:43.115Z,1025.67
2018-11-03T07:46:43.036Z,1025.66
2018-11-03T07:48:35.130Z,1025.68
2018-11-03T07:49:35.117Z,1025.68
2018-11-03T07:51:26.844Z,1025.69
2018-11-03T07:52:26.864Z,1025.75
2018-11-03T07:54:18.643Z,1025.70
2018-11-03T07:55:18.517Z,1025.75
2018-11-03T07:57:10.636Z,1025.73
2018-11-03T07:58:10.601Z,1025.71
2018-11-03T08:00:02.266Z,1025.71
2018-11-03T08:01:02.208Z,1025.70
2018-11-03T08:02:54.235Z,1025.70
2018-11-03T08:03:54.065Z,1025.68
2018-11-03T08:05:45.763Z,1025.68
2018-11-03T08:06:45.649Z,1025.64
2018-11-03T08:08:37.580Z,1025.63
2018-11-03T08:09:37.452Z,1025.64
2018-11-03T08:11:29.493Z,1025.65
2018-11-03T08:12:29.269Z,1025.65
2018-11-03T08:14:21.190Z,1025.64
2018-11-03T08:15:21.116Z,1025.65
2018-11-03T08:17:13.020Z,1025.65
2018-11-03T08:18:12.954Z,1025.66
2018-11-03T08:20:04.723Z,1025.75
2018-11-03T08:21:04.632Z,1025.75
2018-11-03T08:22:56.449Z,1025.80
2018-11-03T08:23:56.432Z,1025.82
2018-11-03T08:25:48.115Z,1025.80
2018-11-03T08:26:48.052Z,1025.80
2018-11-03T08:28:39.945Z,1025.76
2018-11-03T08:29:39.785Z,1025.79
2018-11-03T08:31:31.839Z,1025.77
2018-11-03T08:32:31.695Z,1025.77
2018-11-03T08:34:23.572Z,1025.76
2018-11-03T08:35:23.437Z,1025.75
2018-11-03T08:37:15.307Z,1025.77
2018-11-03T08:38:15.421Z,1025.75
2018-11-03T08:40:09.121Z,1025.70
2018-11-03T08:41:08.932Z,1025.74
2018-11-03T08:43:01.919Z,1025.72
2018-11-03T08:44:00.793Z,1025.74
2018-11-03T08:45:53.159Z,1025.77
2018-11-03T08:46:52.948Z,1025.76
2018-11-03T08:48:44.647Z,1025.75
2018-11-03T08:49:44.553Z,1025.73
2018-11-03T08:51:36.463Z,1025.78
2018-11-03T08:52:36.315Z,1025.79
2018-11-03T08:54:28.137Z,1025.80
2018-11-03T08:55:28.019Z,1025.77
2018-11-03T08:57:19.820Z,1025.82
2018-11-03T08:58:19.883Z,1025.80
2018-11-03T09:00:11.690Z,1025.87
2018-11-03T09:01:11.447Z,1025.82
2018-11-03T09:03:03.299Z,1025.85
2018-11-03T09:04:03.207Z,1025.90
2018-11-03T09:05:55.040Z,1025.83
2018-11-03T09:06:55.078Z,1025.94
2018-11-03T09:08:46.848Z,1025.93
2018-11-03T09:09:46.720Z,1025.92
2018-11-03T09:11:38.599Z,1025.96
2018-11-03T09:12:38.429Z,1025.91
2018-11-03T09:14:30.597Z,1025.95
2018-11-03T09:15:30.346Z,1025.96
2018-11-03T09:17:22.128Z,1025.99
2018-11-03T09:18:22.036Z,1025.97
2018-11-03T09:20:13.867Z,1026.00
2018-11-03T09:21:13.741Z,1026.08
2018-11-03T09:23:05.581Z,1026.08
2018-11-03T09:24:05.496Z,1026.06
2018-11-03T09:25:57.271Z,1026.09
2018-11-03T09:26:57.191Z,1026.02
2018-11-03T09:28:49.151Z,1026.03
2018-11-03T09:29:49.093Z,1026.04
2018-11-03T09:31:42.103Z,1026.06
2018-11-03T09:32:41.787Z,1026.07
2018-11-03T09:34:33.644Z,1026.03
2018-11-03T09:35:33.507Z,1026.05
2018-11-03T09:37:25.456Z,1026.07
2018-11-03T09:38:25.315Z,1026.06
2018-11-03T09:40:17.218Z,1026.06
2018-11-03T09:41:17.156Z,1026.05
2018-11-03T09:43:09.062Z,1026.01
2018-11-03T09:44:08.962Z,1026.01
2018-11-03T09:46:00.746Z,1026.00
2018-11-03T09:47:00.605Z,1025.97
2018-11-03T09:48:52.482Z,1026.00
2018-11-03T09:49:52.442Z,1026.00
2018-11-03T09:51:44.251Z,1026.01
2018-11-03T09:52:44.233Z,1026.00
2018-11-03T09:54:35.951Z,1026.00
2018-11-03T09:55:35.889Z,1025.96
2018-11-03T09:57:27.739Z,1026.00
2018-11-03T09:58:27.670Z,1025.97
2018-11-03T10:00:19.675Z,1025.99
2018-11-03T10:01:19.289Z,1026.01
2018-11-03T10:03:11.160Z,1026.02
2018-11-03T10:04:11.076Z,1026.00
2018-11-03T10:06:02.914Z,1025.97
2018-11-03T10:07:02.789Z,1025.92
2018-11-03T10:08:54.718Z,1025.95
2018-11-03T10:09:54.477Z,1025.92
2018-11-03T10:11:46.361Z,1025.87
2018-11-03T10:12:46.249Z,1025.87
2018-11-03T10:14:38.098Z,1025.81
2018-11-03T10:15:38.023Z,1025.80
2018-11-03T10:17:29.819Z,1025.79
2018-11-03T10:18:29.760Z,1025.79
2018-11-03T10:20:21.533Z,1025.73
2018-11-03T10:21:21.466Z,1025.78
2018-11-03T10:23:13.307Z,1025.79
2018-11-03T10:24:13.161Z,1025.81
2018-11-03T10:26:05.003Z,1025.85
2018-11-03T10:27:04.923Z,1025.82
2018-11-03T10:28:56.983Z,1025.81
2018-11-03T10:29:56.658Z,1025.84
2018-11-03T10:31:48.506Z,1025.88
2018-11-03T10:32:48.443Z,1025.79
2018-11-03T10:34:40.203Z,1025.77
2018-11-03T10:35:40.138Z,1025.78
2018-11-03T10:37:31.941Z,1025.76
2018-11-03T10:38:31.872Z,1025.81
2018-11-03T10:40:23.685Z,1025.79
2018-11-03T10:41:23.618Z,1025.75
2018-11-03T10:43:15.434Z,1025.81
2018-11-03T10:44:15.329Z,1025.84
2018-11-03T10:46:07.183Z,1025.85
2018-11-03T10:47:07.056Z,1025.83
2018-11-03T10:48:58.934Z,1025.82
2018-11-03T10:49:58.754Z,1025.85
2018-11-03T10:51:50.521Z,1025.81
2018-11-03T10:52:50.429Z,1025.77
2018-11-03T10:54:42.232Z,1025.82
2018-11-03T10:55:42.154Z,1025.84
2018-11-03T10:57:34.086Z,1025.83
2018-11-03T10:58:33.940Z,1025.79
2018-11-03T11:00:25.726Z,1025.85
2018-11-03T11:01:25.663Z,1025.86
2018-11-03T11:03:17.532Z,1025.86
2018-11-03T11:04:17.393Z,1025.82
2018-11-03T11:06:09.178Z,1025.81
2018-11-03T11:07:09.167Z,1025.74
2018-11-03T11:09:00.980Z,1025.69
2018-11-03T11:10:00.816Z,1025.63
2018-11-03T11:11:52.706Z,1025.61
2018-11-03T11:12:52.603Z,1025.60
2018-11-03T11:14:44.522Z,1025.54
2018-11-03T11:15:44.411Z,1025.53
2018-11-03T11:17:36.336Z,1025.51
2018-11-03T11:18:36.190Z,1025.52
2018-11-03T11:20:28.133Z,1025.46
2018-11-03T11:21:28.070Z,1025.50
2018-11-03T11:23:20.020Z,1025.47
2018-11-03T11:24:20.161Z,1025.49
2018-11-03T11:26:11.644Z,1025.45
2018-11-03T11:27:11.684Z,1025.45
2018-11-03T11:29:03.390Z,1025.43
2018-11-03T11:30:03.269Z,1025.44
2018-11-03T11:31:55.040Z,1025.49
2018-11-03T11:32:54.983Z,1025.45
2018-11-03T11:34:46.801Z,1025.39
2018-11-03T11:35:46.679Z,1025.38
2018-11-03T11:37:38.579Z,1025.38
2018-11-03T11:38:38.439Z,1025.37
2018-11-03T11:40:30.485Z,1025.43
2018-11-03T11:41:30.127Z,1025.39
2018-11-03T11:43:22.472Z,1025.38
2018-11-03T11:44:22.415Z,1025.42
2018-11-03T11:46:14.405Z,1025.44
2018-11-03T11:47:14.206Z,1025.40
2018-11-03T11:49:06.163Z,1025.41
2018-11-03T11:50:05.956Z,1025.42
2018-11-03T11:51:57.788Z,1025.42
2018-11-03T11:52:57.821Z,1025.42
2018-11-03T11:54:49.475Z,1025.40
2018-11-03T11:55:49.344Z,1025.41
2018-11-03T11:57:41.285Z,1025.41
2018-11-03T11:58:41.114Z,1025.44
2018-11-03T12:00:32.965Z,1025.45
2018-11-03T12:01:32.963Z,1025.45
2018-11-03T12:03:24.718Z,1025.43
2018-11-03T12:04:24.646Z,1025.45
2018-11-03T12:06:16.637Z,1025.44
2018-11-03T12:07:16.389Z,1025.45
2018-11-03T12:09:08.167Z,1025.41
2018-11-03T12:10:08.101Z,1025.43
2018-11-03T12:11:59.943Z,1025.41
2018-11-03T12:12:59.854Z,1025.35
2018-11-03T12:14:51.692Z,1025.34
2018-11-03T12:15:51.643Z,1025.40
2018-11-03T12:17:43.573Z,1025.37
2018-11-03T12:18:43.477Z,1025.37
2018-11-03T12:20:35.267Z,1025.35
2018-11-03T12:21:35.227Z,1025.38
2018-11-03T12:23:26.992Z,1025.35
2018-11-03T12:24:26.889Z,1025.30
2018-11-03T12:26:18.680Z,1025.32
2018-11-03T12:27:18.611Z,1025.28
2018-11-03T12:29:10.403Z,1025.35
2018-11-03T12:30:10.308Z,1025.29
2018-11-03T12:32:02.095Z,1025.30
2018-11-03T12:33:02.010Z,1025.27
2018-11-03T12:34:53.822Z,1025.29
2018-11-03T12:35:53.712Z,1025.26
2018-11-03T12:37:45.684Z,1025.27
2018-11-03T12:38:45.439Z,1025.26
2018-11-03T12:40:37.265Z,1025.29
2018-11-03T12:41:37.163Z,1025.28
2018-11-03T12:43:29.041Z,1025.29
2018-11-03T12:44:28.970Z,1025.28
2018-11-03T12:46:20.898Z,1025.22
2018-11-03T12:47:20.812Z,1025.18
2018-11-03T12:49:12.626Z,1025.18
2018-11-03T12:50:12.551Z,1025.16
2018-11-03T12:52:04.298Z,1025.15
2018-11-03T12:53:04.227Z,1025.17
2018-11-03T12:54:56.508Z,1025.10
2018-11-03T12:55:56.426Z,1025.08
2018-11-03T12:57:48.343Z,1025.06
2018-11-03T12:58:48.300Z,1025.07
2018-11-03T13:00:40.071Z,1025.05
2018-11-03T13:01:39.993Z,1025.00
2018-11-03T13:03:31.876Z,1024.97
2018-11-03T13:04:31.797Z,1024.94
2018-11-03T13:06:23.611Z,1024.94
2018-11-03T13:07:23.677Z,1024.88
2018-11-03T13:09:15.331Z,1024.90
2018-11-03T13:10:15.261Z,1024.89
2018-11-03T13:12:07.639Z,1024.98
2018-11-03T13:13:07.460Z,1024.94
2018-11-03T13:14:59.317Z,1024.99
2018-11-03T13:15:59.234Z,1024.94
2018-11-03T13:17:51.037Z,1024.94
2018-11-03T13:18:50.927Z,1024.93
2018-11-03T13:20:42.732Z,1024.94
2018-11-03T13:21:42.654Z,1024.96
2018-11-03T13:23:34.548Z,1024.98
2018-11-03T13:24:34.428Z,1024.93
2018-11-03T13:26:26.247Z,1024.98
2018-11-03T13:27:26.141Z,1025.01
2018-11-03T13:29:17.910Z,1024.98
2018-11-03T13:30:17.821Z,1025.02
2018-11-03T13:32:09.641Z,1025.04
2018-11-03T13:33:09.550Z,1025.00
2018-11-03T13:35:01.439Z,1025.04
2018-11-03T13:36:01.293Z,1025.06
2018-11-03T13:37:53.079Z,1025.07
2018-11-03T13:38:53.026Z,1025.06
2018-11-03T13:40:44.830Z,1025.04
2018-11-03T13:41:44.746Z,1025.05
2018-11-03T13:43:36.515Z,1025.01
2018-11-03T13:44:36.481Z,1024.99
2018-11-03T13:46:28.275Z,1024.96
2018-11-03T13:47:28.394Z,1024.96
2018-11-03T13:49:20.405Z,1024.92
2018-11-03T13:50:20.316Z,1024.90
2018-11-03T13:52:12.121Z,1024.93
2018-11-03T13:53:12.039Z,1024.94
2018-11-03T13:55:03.865Z,1024.97
2018-11-03T13:56:03.788Z,1024.98
2018-11-03T13:57:55.656Z,1025.02
2018-11-03T13:58:55.475Z,1025.03
2018-11-03T14:00:47.335Z,1025.05
2018-11-03T14:01:47.226Z,1025.06
2018-11-03T14:03:39.000Z,1025.07
2018-11-03T14:04:38.926Z,1025.06
2018-11-03T14:06:30.732Z,1025.09
2018-11-03T14:07:30.636Z,1025.09
2018-11-03T14:09:22.502Z,1025.08
2018-11-03T14:10:22.425Z,1025.12
2018-11-03T14:12:14.268Z,1025.09
2018-11-03T14:13:14.238Z,1025.08
2018-11-03T14:15:06.011Z,1025.05
2018-11-03T14:16:05.911Z,1025.06
2018-11-03T14:17:57.673Z,1025.07
2018-11-03T14:18:57.611Z,1025.10
2018-11-03T14:20:49.412Z,1025.05
2018-11-03T14:21:49.330Z,1025.10
2018-11-03T14:23:41.125Z,1025.01
2018-11-03T14:24:41.021Z,1025.02
2018-11-03T14:26:32.788Z,1024.98
2018-11-03T14:27:32.738Z,1025.00
2018-11-03T14:29:24.542Z,1024.94
2018-11-03T14:30:24.446Z,1024.98
2018-11-03T14:32:16.225Z,1025.02
2018-11-03T14:33:16.194Z,1025.00
2018-11-03T14:35:07.954Z,1025.06
2018-11-03T14:36:07.953Z,1025.06
2018-11-03T14:37:59.606Z,1025.02
2018-11-03T14:38:59.562Z,1024.99
2018-11-03T14:40:51.375Z,1024.98
2018-11-03T14:41:51.238Z,1024.99
2018-11-03T14:43:43.554Z,1025.00
2018-11-03T14:44:43.650Z,1024.99
2018-11-03T14:46:35.301Z,1024.97
2018-11-03T14:47:35.302Z,1024.98
2018-11-03T14:49:27.169Z,1024.96
2018-11-03T14:50:26.979Z,1024.98
2018-11-03T14:52:18.845Z,1025.00
2018-11-03T14:53:18.742Z,1024.95
2018-11-03T14:55:10.773Z,1025.00
2018-11-03T14:56:10.537Z,1025.01
2018-11-03T14:58:02.243Z,1024.98
2018-11-03T14:59:02.239Z,1024.97
2018-11-03T15:00:54.018Z,1024.97
2018-11-03T15:01:53.922Z,1025.01
2018-11-03T15:03:46.005Z,1024.95
2018-11-03T15:04:45.684Z,1024.95
2018-11-03T15:06:37.614Z,1024.95
2018-11-03T15:07:37.543Z,1024.93
2018-11-03T15:09:29.343Z,1024.92
2018-11-03T15:10:29.254Z,1024.90
2018-11-03T15:12:21.219Z,1024.93
2018-11-03T15:13:21.148Z,1024.96
2018-11-03T15:15:13.335Z,1024.95
2018-11-03T15:16:13.236Z,1024.91
2018-11-03T15:18:05.089Z,1024.94
2018-11-03T15:19:04.981Z,1024.95
2018-11-03T15:20:56.999Z,1024.90
2018-11-03T15:21:56.935Z,1024.90
2018-11-03T15:23:48.879Z,1024.90
2018-11-03T15:24:49.015Z,1024.90
2018-11-03T15:26:40.633Z,1024.90
2018-11-03T15:27:40.556Z,1024.85
2018-11-03T15:29:32.543Z,1024.87
2018-11-03T15:30:32.750Z,1024.87
2018-11-03T15:32:24.604Z,1024.84
2018-11-03T15:33:24.403Z,1024.82
2018-11-03T15:35:16.483Z,1024.82
2018-11-03T15:36:16.404Z,1024.74
2018-11-03T15:38:08.257Z,1024.71
2018-11-03T15:39:08.160Z,1024.72
2018-11-03T15:41:00.041Z,1024.71
2018-11-03T15:41:59.861Z,1024.73
2018-11-03T15:43:51.720Z,1024.75
2018-11-03T15:44:51.607Z,1024.71
2018-11-03T15:46:43.574Z,1024.71
2018-11-03T15:47:43.571Z,1024.73
2018-11-03T15:49:35.242Z,1024.69
2018-11-03T15:50:35.155Z,1024.70
2018-11-03T15:52:27.470Z,1024.70
2018-11-03T15:53:27.109Z,1024.67
2018-11-03T15:55:19.068Z,1024.66
2018-11-03T15:56:18.841Z,1024.62
2018-11-03T15:58:10.758Z,1024.61
2018-11-03T15:59:10.653Z,1024.61
2018-11-03T16:01:02.564Z,1024.66
2018-11-03T16:02:02.351Z,1024.67
2018-11-03T16:03:54.123Z,1024.65
2018-11-03T16:04:54.049Z,1024.66
2018-11-03T16:06:45.835Z,1024.70
2018-11-03T16:07:45.735Z,1024.70
2018-11-03T16:09:37.532Z,1024.70
2018-11-03T16:10:37.462Z,1024.72
2018-11-03T16:12:29.397Z,1024.64
2018-11-03T16:13:29.280Z,1024.70
2018-11-03T16:15:21.150Z,1024.69
2018-11-03T16:16:21.079Z,1024.69
2018-11-03T16:18:12.857Z,1024.69
2018-11-03T16:19:12.776Z,1024.72
2018-11-03T16:21:04.625Z,1024.75
2018-11-03T16:22:04.494Z,1024.75
2018-11-03T16:23:56.321Z,1024.76
2018-11-03T16:24:56.252Z,1024.76
2018-11-03T16:26:48.052Z,1024.75
2018-11-03T16:27:47.937Z,1024.72
2018-11-03T16:29:39.821Z,1024.76
2018-11-03T16:30:39.692Z,1024.77
2018-11-03T16:32:31.738Z,1024.81
2018-11-03T16:33:31.543Z,1024.75
2018-11-03T16:35:23.469Z,1024.78
2018-11-03T16:36:23.231Z,1024.74
2018-11-03T16:38:15.424Z,1024.74
2018-11-03T16:39:15.288Z,1024.73
2018-11-03T16:41:07.094Z,1024.70
2018-11-03T16:42:07.383Z,1024.68
2018-11-03T16:43:58.820Z,1024.66
2018-11-03T16:44:58.715Z,1024.65
2018-11-03T16:46:50.515Z,1024.64
2018-11-03T16:47:50.437Z,1024.64
2018-11-03T16:49:42.257Z,1024.62
2018-11-03T16:50:42.137Z,1024.65
2018-11-03T16:52:34.090Z,1024.64
2018-11-03T16:53:33.957Z,1024.67
2018-11-03T16:55:25.763Z,1024.70
2018-11-03T16:56:25.661Z,1024.64
2018-11-03T16:58:17.473Z,1024.65
2018-11-03T16:59:17.365Z,1024.62
2018-11-03T17:01:09.141Z,1024.66
2018-11-03T17:02:09.081Z,1024.64
2018-11-03T17:04:00.983Z,1024.70
2018-11-03T17:05:00.912Z,1024.66
2018-11-03T17:06:52.928Z,1024.67
2018-11-03T17:07:52.643Z,1024.68
2018-11-03T17:09:44.504Z,1024.68
2018-11-03T17:10:44.414Z,1024.67
2018-11-03T17:12:36.322Z,1024.66
2018-11-03T17:13:36.088Z,1024.64
2018-11-03T17:15:28.049Z,1024.69
2018-11-03T17:16:27.973Z,1024.71
2018-11-03T17:18:19.708Z,1024.67